sensor_id;sensor_type;location;lat;lon;timestamp;P1;durP1;ratioP1;P2;durP2;ratioP2
11582;SDS011;34299;50.820;4.548;2023-02-28T00:01:26;6.63;;;4.87;;
11582;SDS011;34299;50.820;4.548;2023-02-28T00:03:55;4.93;;;4.43;;
11582;SDS011;34299;50.820;4.548;2023-02-28T00:06:22;5.85;;;4.70;;
11582;SDS011;34299;50.820;4.548;2023-02-28T00:08:50;8.17;;;4.17;;
11582;SDS011;34299;50.820;4.548;2023-02-28T00:11:17;5.68;;;4.35;;
11582;SDS011;34299;50.820;4.548;2023-02-28T00:13:45;5.20;;;4.65;;
11582;SDS011;34299;50.820;4.548;2023-02-28T00:16:13;6.85;;;4.70;;
11582;SDS011;34299;50.820;4.548;2023-02-28T00:18:41;6.57;;;4.43;;
11582;SDS011;34299;50.820;4.548;2023-02-28T00:21:10;6.65;;;4.60;;
11582;SDS011;34299;50.820;4.548;2023-02-28T00:23:37;7.15;;;4.55;;
11582;SDS011;34299;50.820;4.548;2023-02-28T00:26:04;5.28;;;4.45;;
11582;SDS011;34299;50.820;4.548;2023-02-28T00:28:31;7.07;;;4.47;;
11582;SDS011;34299;50.820;4.548;2023-02-28T00:30:59;8.27;;;4.75;;
11582;SDS011;34299;50.820;4.548;2023-02-28T00:33:26;5.95;;;4.07;;
11582;SDS011;34299;50.820;4.548;2023-02-28T00:36:00;5.03;;;4.40;;
11582;SDS011;34299;50.820;4.548;2023-02-28T00:38:29;7.18;;;4.72;;
11582;SDS011;34299;50.820;4.548;2023-02-28T00:40:57;9.30;;;4.55;;
11582;SDS011;34299;50.820;4.548;2023-02-28T00:43:29;9.68;;;4.15;;
11582;SDS011;34299;50.820;4.548;2023-02-28T00:45:56;7.18;;;4.60;;
11582;SDS011;34299;50.820;4.548;2023-02-28T00:48:24;7.78;;;4.82;;
11582;SDS011;34299;50.820;4.548;2023-02-28T00:50:51;5.95;;;4.30;;
11582;SDS011;34299;50.820;4.548;2023-02-28T00:53:18;6.18;;;4.60;;
11582;SDS011;34299;50.820;4.548;2023-02-28T00:55:48;5.75;;;4.25;;
11582;SDS011;34299;50.820;4.548;2023-02-28T00:58:15;5.55;;;4.45;;
11582;SDS011;34299;50.820;4.548;2023-02-28T01:00:42;5.70;;;4.68;;
11582;SDS011;34299;50.820;4.548;2023-02-28T01:03:14;5.70;;;4.35;;
11582;SDS011;34299;50.820;4.548;2023-02-28T01:05:41;5.18;;;4.32;;
11582;SDS011;34299;50.820;4.548;2023-02-28T01:08:08;7.10;;;4.97;;
11582;SDS011;34299;50.820;4.548;2023-02-28T01:10:35;7.07;;;4.78;;
11582;SDS011;34299;50.820;4.548;2023-02-28T01:13:04;8.60;;;4.40;;
11582;SDS011;34299;50.820;4.548;2023-02-28T01:15:32;5.35;;;3.88;;
11582;SDS011;34299;50.820;4.548;2023-02-28T01:17:59;4.80;;;4.20;;
11582;SDS011;34299;50.820;4.548;2023-02-28T01:20:26;6.35;;;4.38;;
11582;SDS011;34299;50.820;4.548;2023-02-28T01:22:53;4.55;;;4.15;;
11582;SDS011;34299;50.820;4.548;2023-02-28T01:25:21;4.28;;;3.88;;
11582;SDS011;34299;50.820;4.548;2023-02-28T01:27:48;6.32;;;4.50;;
11582;SDS011;34299;50.820;4.548;2023-02-28T01:30:17;5.32;;;4.07;;
11582;SDS011;34299;50.820;4.548;2023-02-28T01:32:44;7.07;;;4.72;;
11582;SDS011;34299;50.820;4.548;2023-02-28T01:35:11;6.88;;;4.15;;
11582;SDS011;34299;50.820;4.548;2023-02-28T01:37:38;7.13;;;4.60;;
11582;SDS011;34299;50.820;4.548;2023-02-28T01:40:06;4.95;;;4.47;;
11582;SDS011;34299;50.820;4.548;2023-02-28T01:42:33;5.90;;;3.78;;
11582;SDS011;34299;50.820;4.548;2023-02-28T01:45:02;6.40;;;4.25;;
11582;SDS011;34299;50.820;4.548;2023-02-28T01:47:31;5.93;;;4.22;;
11582;SDS011;34299;50.820;4.548;2023-02-28T01:50:00;6.50;;;4.80;;
11582;SDS011;34299;50.820;4.548;2023-02-28T01:52:29;6.15;;;4.47;;
11582;SDS011;34299;50.820;4.548;2023-02-28T01:54:58;6.20;;;4.43;;
11582;SDS011;34299;50.820;4.548;2023-02-28T01:57:27;5.78;;;4.25;;
11582;SDS011;34299;50.820;4.548;2023-02-28T01:59:56;6.55;;;4.85;;
11582;SDS011;34299;50.820;4.548;2023-02-28T02:02:24;5.20;;;4.05;;
11582;SDS011;34299;50.820;4.548;2023-02-28T02:04:55;6.65;;;4.70;;
11582;SDS011;34299;50.820;4.548;2023-02-28T02:07:23;6.45;;;4.82;;
11582;SDS011;34299;50.820;4.548;2023-02-28T02:09:58;8.93;;;4.97;;
11582;SDS011;34299;50.820;4.548;2023-02-28T02:12:27;7.03;;;4.47;;
11582;SDS011;34299;50.820;4.548;2023-02-28T02:14:59;7.43;;;4.70;;
11582;SDS011;34299;50.820;4.548;2023-02-28T02:17:28;10.70;;;5.55;;
11582;SDS011;34299;50.820;4.548;2023-02-28T02:20:07;6.65;;;4.78;;
11582;SDS011;34299;50.820;4.548;2023-02-28T02:22:46;10.70;;;5.20;;
11582;SDS011;34299;50.820;4.548;2023-02-28T02:25:21;6.68;;;4.90;;
11582;SDS011;34299;50.820;4.548;2023-02-28T02:28:00;7.57;;;5.18;;
11582;SDS011;34299;50.820;4.548;2023-02-28T02:33:40;7.32;;;5.47;;
11582;SDS011;34299;50.820;4.548;2023-02-28T02:36:12;7.25;;;4.95;;
11582;SDS011;34299;50.820;4.548;2023-02-28T02:38:42;5.85;;;4.85;;
11582;SDS011;34299;50.820;4.548;2023-02-28T02:41:15;7.10;;;4.90;;
11582;SDS011;34299;50.820;4.548;2023-02-28T02:43:46;8.98;;;5.57;;
11582;SDS011;34299;50.820;4.548;2023-02-28T02:46:16;7.65;;;5.00;;
11582;SDS011;34299;50.820;4.548;2023-02-28T02:48:44;7.07;;;4.65;;
11582;SDS011;34299;50.820;4.548;2023-02-28T02:51:14;6.30;;;5.20;;
11582;SDS011;34299;50.820;4.548;2023-02-28T02:53:42;6.30;;;5.05;;
11582;SDS011;34299;50.820;4.548;2023-02-28T02:56:12;6.60;;;5.07;;
11582;SDS011;34299;50.820;4.548;2023-02-28T02:58:41;5.32;;;4.50;;
11582;SDS011;34299;50.820;4.548;2023-02-28T03:01:10;11.65;;;5.68;;
11582;SDS011;34299;50.820;4.548;2023-02-28T03:03:37;7.70;;;5.03;;
11582;SDS011;34299;50.820;4.548;2023-02-28T03:06:05;5.93;;;4.70;;
11582;SDS011;34299;50.820;4.548;2023-02-28T03:08:35;7.13;;;4.95;;
11582;SDS011;34299;50.820;4.548;2023-02-28T03:11:03;7.47;;;5.20;;
11582;SDS011;34299;50.820;4.548;2023-02-28T03:13:50;5.63;;;4.78;;
11582;SDS011;34299;50.820;4.548;2023-02-28T03:16:23;5.60;;;4.57;;
11582;SDS011;34299;50.820;4.548;2023-02-28T03:18:53;8.18;;;4.78;;
11582;SDS011;34299;50.820;4.548;2023-02-28T03:21:23;6.45;;;4.65;;
11582;SDS011;34299;50.820;4.548;2023-02-28T03:23:56;9.45;;;5.60;;
11582;SDS011;34299;50.820;4.548;2023-02-28T03:26:26;6.95;;;5.35;;
11582;SDS011;34299;50.820;4.548;2023-02-28T03:28:55;9.90;;;5.60;;
11582;SDS011;34299;50.820;4.548;2023-02-28T03:31:26;10.27;;;5.20;;
11582;SDS011;34299;50.820;4.548;2023-02-28T03:33:55;8.32;;;5.55;;
11582;SDS011;34299;50.820;4.548;2023-02-28T03:36:27;10.25;;;5.70;;
11582;SDS011;34299;50.820;4.548;2023-02-28T03:38:57;7.32;;;4.97;;
11582;SDS011;34299;50.820;4.548;2023-02-28T03:41:29;7.40;;;5.47;;
11582;SDS011;34299;50.820;4.548;2023-02-28T03:43:58;7.68;;;4.97;;
11582;SDS011;34299;50.820;4.548;2023-02-28T03:46:26;5.97;;;4.65;;
11582;SDS011;34299;50.820;4.548;2023-02-28T03:48:56;8.02;;;5.13;;
11582;SDS011;34299;50.820;4.548;2023-02-28T03:51:25;8.75;;;5.93;;
11582;SDS011;34299;50.820;4.548;2023-02-28T03:53:54;8.15;;;4.90;;
11582;SDS011;34299;50.820;4.548;2023-02-28T03:56:27;10.10;;;5.60;;
11582;SDS011;34299;50.820;4.548;2023-02-28T03:58:57;6.75;;;5.15;;
11582;SDS011;34299;50.820;4.548;2023-02-28T04:01:26;8.25;;;5.13;;
11582;SDS011;34299;50.820;4.548;2023-02-28T04:03:54;7.82;;;5.18;;
11582;SDS011;34299;50.820;4.548;2023-02-28T04:06:22;9.02;;;5.22;;
11582;SDS011;34299;50.820;4.548;2023-02-28T04:08:50;6.60;;;4.95;;
11582;SDS011;34299;50.820;4.548;2023-02-28T04:11:22;7.45;;;5.47;;
11582;SDS011;34299;50.820;4.548;2023-02-28T04:13:51;7.05;;;6.20;;
11582;SDS011;34299;50.820;4.548;2023-02-28T04:16:18;5.43;;;4.82;;
11582;SDS011;34299;50.820;4.548;2023-02-28T04:18:46;8.13;;;5.18;;
11582;SDS011;34299;50.820;4.548;2023-02-28T04:21:13;9.38;;;5.50;;
11582;SDS011;34299;50.820;4.548;2023-02-28T04:23:40;6.03;;;5.30;;
11582;SDS011;34299;50.820;4.548;2023-02-28T04:26:07;9.93;;;5.93;;
11582;SDS011;34299;50.820;4.548;2023-02-28T04:28:36;8.73;;;5.53;;
11582;SDS011;34299;50.820;4.548;2023-02-28T04:31:05;8.40;;;5.78;;
11582;SDS011;34299;50.820;4.548;2023-02-28T04:33:32;8.57;;;5.75;;
11582;SDS011;34299;50.820;4.548;2023-02-28T04:36:00;10.93;;;6.15;;
11582;SDS011;34299;50.820;4.548;2023-02-28T04:38:27;7.00;;;5.35;;
11582;SDS011;34299;50.820;4.548;2023-02-28T04:40:56;7.22;;;5.40;;
11582;SDS011;34299;50.820;4.548;2023-02-28T04:43:23;10.02;;;6.22;;
11582;SDS011;34299;50.820;4.548;2023-02-28T04:45:51;9.60;;;6.25;;
11582;SDS011;34299;50.820;4.548;2023-02-28T04:48:20;8.70;;;5.97;;
11582;SDS011;34299;50.820;4.548;2023-02-28T04:50:48;10.18;;;6.38;;
11582;SDS011;34299;50.820;4.548;2023-02-28T04:53:15;9.63;;;7.07;;
11582;SDS011;34299;50.820;4.548;2023-02-28T04:55:42;8.13;;;7.32;;
11582;SDS011;34299;50.820;4.548;2023-02-28T04:58:09;9.77;;;6.80;;
11582;SDS011;34299;50.820;4.548;2023-02-28T05:00:36;8.80;;;6.63;;
11582;SDS011;34299;50.820;4.548;2023-02-28T05:03:04;10.00;;;6.40;;
11582;SDS011;34299;50.820;4.548;2023-02-28T05:05:32;10.38;;;7.30;;
11582;SDS011;34299;50.820;4.548;2023-02-28T05:08:00;11.90;;;7.20;;
11582;SDS011;34299;50.820;4.548;2023-02-28T05:10:27;10.43;;;6.72;;
11582;SDS011;34299;50.820;4.548;2023-02-28T05:12:54;9.55;;;7.30;;
11582;SDS011;34299;50.820;4.548;2023-02-28T05:15:22;11.38;;;7.70;;
11582;SDS011;34299;50.820;4.548;2023-02-28T05:17:49;9.93;;;7.28;;
11582;SDS011;34299;50.820;4.548;2023-02-28T05:20:16;8.82;;;7.07;;
11582;SDS011;34299;50.820;4.548;2023-02-28T05:22:45;8.93;;;7.65;;
11582;SDS011;34299;50.820;4.548;2023-02-28T05:25:13;11.10;;;6.75;;
11582;SDS011;34299;50.820;4.548;2023-02-28T05:27:43;9.32;;;7.13;;
11582;SDS011;34299;50.820;4.548;2023-02-28T05:30:10;8.90;;;7.35;;
11582;SDS011;34299;50.820;4.548;2023-02-28T05:32:37;9.63;;;6.93;;
11582;SDS011;34299;50.820;4.548;2023-02-28T05:35:08;10.23;;;7.35;;
11582;SDS011;34299;50.820;4.548;2023-02-28T05:37:35;10.32;;;7.40;;
11582;SDS011;34299;50.820;4.548;2023-02-28T05:40:04;12.35;;;6.88;;
11582;SDS011;34299;50.820;4.548;2023-02-28T05:42:35;10.57;;;8.07;;
11582;SDS011;34299;50.820;4.548;2023-02-28T05:45:03;11.77;;;7.95;;
11582;SDS011;34299;50.820;4.548;2023-02-28T05:47:30;10.15;;;8.45;;
11582;SDS011;34299;50.820;4.548;2023-02-28T05:49:57;12.18;;;8.48;;
11582;SDS011;34299;50.820;4.548;2023-02-28T05:52:25;9.68;;;8.27;;
11582;SDS011;34299;50.820;4.548;2023-02-28T05:54:52;10.40;;;8.20;;
11582;SDS011;34299;50.820;4.548;2023-02-28T05:57:21;11.02;;;8.38;;
11582;SDS011;34299;50.820;4.548;2023-02-28T05:59:48;11.98;;;8.65;;
11582;SDS011;34299;50.820;4.548;2023-02-28T06:02:16;11.43;;;8.48;;
11582;SDS011;34299;50.820;4.548;2023-02-28T06:04:43;13.70;;;8.40;;
11582;SDS011;34299;50.820;4.548;2023-02-28T06:07:11;10.90;;;8.23;;
11582;SDS011;34299;50.820;4.548;2023-02-28T06:09:38;13.13;;;8.48;;
11582;SDS011;34299;50.820;4.548;2023-02-28T06:12:05;12.45;;;8.63;;
11582;SDS011;34299;50.820;4.548;2023-02-28T06:14:36;11.25;;;8.68;;
11582;SDS011;34299;50.820;4.548;2023-02-28T06:17:03;12.15;;;8.45;;
11582;SDS011;34299;50.820;4.548;2023-02-28T06:19:30;11.23;;;8.27;;
11582;SDS011;34299;50.820;4.548;2023-02-28T06:21:58;10.25;;;7.97;;
11582;SDS011;34299;50.820;4.548;2023-02-28T06:24:26;13.82;;;8.50;;
11582;SDS011;34299;50.820;4.548;2023-02-28T06:26:54;10.68;;;7.80;;
11582;SDS011;34299;50.820;4.548;2023-02-28T06:29:21;12.35;;;8.15;;
11582;SDS011;34299;50.820;4.548;2023-02-28T06:31:50;12.52;;;7.78;;
11582;SDS011;34299;50.820;4.548;2023-02-28T06:34:17;11.10;;;7.88;;
11582;SDS011;34299;50.820;4.548;2023-02-28T06:36:44;10.27;;;8.00;;
11582;SDS011;34299;50.820;4.548;2023-02-28T06:39:11;9.48;;;7.20;;
11582;SDS011;34299;50.820;4.548;2023-02-28T06:41:39;11.63;;;8.57;;
11582;SDS011;34299;50.820;4.548;2023-02-28T06:44:10;11.05;;;8.13;;
11582;SDS011;34299;50.820;4.548;2023-02-28T06:46:38;15.00;;;7.65;;
11582;SDS011;34299;50.820;4.548;2023-02-28T06:49:07;12.55;;;7.97;;
11582;SDS011;34299;50.820;4.548;2023-02-28T06:51:35;9.23;;;7.68;;
11582;SDS011;34299;50.820;4.548;2023-02-28T06:54:03;13.10;;;8.68;;
11582;SDS011;34299;50.820;4.548;2023-02-28T06:56:30;9.98;;;7.45;;
11582;SDS011;34299;50.820;4.548;2023-02-28T06:58:58;11.55;;;7.85;;
11582;SDS011;34299;50.820;4.548;2023-02-28T07:01:25;10.18;;;7.15;;
11582;SDS011;34299;50.820;4.548;2023-02-28T07:03:53;11.73;;;8.25;;
11582;SDS011;34299;50.820;4.548;2023-02-28T07:06:22;10.27;;;7.15;;
11582;SDS011;34299;50.820;4.548;2023-02-28T07:08:49;13.75;;;8.38;;
11582;SDS011;34299;50.820;4.548;2023-02-28T07:11:17;11.48;;;8.05;;
11582;SDS011;34299;50.820;4.548;2023-02-28T07:13:44;9.85;;;7.55;;
11582;SDS011;34299;50.820;4.548;2023-02-28T07:16:13;10.30;;;7.13;;
11582;SDS011;34299;50.820;4.548;2023-02-28T07:18:40;11.57;;;7.25;;
11582;SDS011;34299;50.820;4.548;2023-02-28T07:21:09;9.23;;;7.43;;
11582;SDS011;34299;50.820;4.548;2023-02-28T07:23:38;12.75;;;7.25;;
11582;SDS011;34299;50.820;4.548;2023-02-28T07:26:05;8.35;;;5.82;;
11582;SDS011;34299;50.820;4.548;2023-02-28T07:28:33;11.40;;;8.30;;
11582;SDS011;34299;50.820;4.548;2023-02-28T07:31:03;11.27;;;7.35;;
11582;SDS011;34299;50.820;4.548;2023-02-28T07:33:30;9.73;;;6.82;;
11582;SDS011;34299;50.820;4.548;2023-02-28T07:36:02;11.23;;;7.43;;
11582;SDS011;34299;50.820;4.548;2023-02-28T07:38:29;11.15;;;7.15;;
11582;SDS011;34299;50.820;4.548;2023-02-28T07:40:58;8.82;;;6.55;;
11582;SDS011;34299;50.820;4.548;2023-02-28T07:43:25;8.50;;;6.25;;
11582;SDS011;34299;50.820;4.548;2023-02-28T07:45:52;9.68;;;6.85;;
11582;SDS011;34299;50.820;4.548;2023-02-28T07:48:19;7.35;;;6.50;;
11582;SDS011;34299;50.820;4.548;2023-02-28T07:50:53;8.02;;;6.75;;
11582;SDS011;34299;50.820;4.548;2023-02-28T07:53:21;11.55;;;6.00;;
11582;SDS011;34299;50.820;4.548;2023-02-28T07:55:48;9.33;;;6.30;;
11582;SDS011;34299;50.820;4.548;2023-02-28T07:58:17;8.00;;;5.85;;
11582;SDS011;34299;50.820;4.548;2023-02-28T08:00:44;4.22;;;2.92;;
11582;SDS011;34299;50.820;4.548;2023-02-28T08:03:12;11.98;;;3.15;;
11582;SDS011;34299;50.820;4.548;2023-02-28T08:05:39;3.90;;;3.60;;
11582;SDS011;34299;50.820;4.548;2023-02-28T08:08:06;8.45;;;5.93;;
11582;SDS011;34299;50.820;4.548;2023-02-28T08:10:34;6.90;;;5.63;;
11582;SDS011;34299;50.820;4.548;2023-02-28T08:13:01;4.10;;;3.70;;
11582;SDS011;34299;50.820;4.548;2023-02-28T08:15:30;3.90;;;3.53;;
11582;SDS011;34299;50.820;4.548;2023-02-28T08:17:57;7.90;;;4.13;;
11582;SDS011;34299;50.820;4.548;2023-02-28T08:20:24;3.73;;;2.80;;
11582;SDS011;34299;50.820;4.548;2023-02-28T08:22:52;4.63;;;3.60;;
11582;SDS011;34299;50.820;4.548;2023-02-28T08:25:19;4.87;;;3.50;;
11582;SDS011;34299;50.820;4.548;2023-02-28T08:27:46;7.20;;;3.60;;
11582;SDS011;34299;50.820;4.548;2023-02-28T08:32:42;5.20;;;2.93;;
11582;SDS011;34299;50.820;4.548;2023-02-28T08:35:10;5.13;;;3.27;;
11582;SDS011;34299;50.820;4.548;2023-02-28T08:37:37;3.97;;;3.00;;
11582;SDS011;34299;50.820;4.548;2023-02-28T08:40:05;7.07;;;3.90;;
11582;SDS011;34299;50.820;4.548;2023-02-28T08:42:33;5.20;;;2.50;;
11582;SDS011;34299;50.820;4.548;2023-02-28T08:45:00;3.30;;;3.00;;
11582;SDS011;34299;50.820;4.548;2023-02-28T08:47:28;4.60;;;4.20;;
11582;SDS011;34299;50.820;4.548;2023-02-28T08:49:56;4.30;;;3.23;;
11582;SDS011;34299;50.820;4.548;2023-02-28T08:52:23;4.97;;;3.23;;
11582;SDS011;34299;50.820;4.548;2023-02-28T08:54:50;3.57;;;2.93;;
11582;SDS011;34299;50.820;4.548;2023-02-28T08:57:18;3.63;;;3.10;;
11582;SDS011;34299;50.820;4.548;2023-02-28T08:59:45;4.90;;;3.00;;
11582;SDS011;34299;50.820;4.548;2023-02-28T09:02:12;3.40;;;2.43;;
11582;SDS011;34299;50.820;4.548;2023-02-28T09:04:40;3.23;;;2.63;;
11582;SDS011;34299;50.820;4.548;2023-02-28T09:07:11;3.27;;;2.97;;
11582;SDS011;34299;50.820;4.548;2023-02-28T09:09:39;3.73;;;2.23;;
11582;SDS011;34299;50.820;4.548;2023-02-28T09:12:18;2.53;;;2.20;;
11582;SDS011;34299;50.820;4.548;2023-02-28T09:14:45;3.40;;;2.53;;
11582;SDS011;34299;50.820;4.548;2023-02-28T09:17:13;3.77;;;2.93;;
11582;SDS011;34299;50.820;4.548;2023-02-28T09:19:40;4.20;;;3.00;;
11582;SDS011;34299;50.820;4.548;2023-02-28T09:22:07;3.70;;;2.83;;
11582;SDS011;34299;50.820;4.548;2023-02-28T09:24:38;3.83;;;2.50;;
11582;SDS011;34299;50.820;4.548;2023-02-28T09:27:05;2.90;;;2.60;;
11582;SDS011;34299;50.820;4.548;2023-02-28T09:29:33;3.33;;;2.60;;
11582;SDS011;34299;50.820;4.548;2023-02-28T09:32:01;2.80;;;2.00;;
11582;SDS011;34299;50.820;4.548;2023-02-28T09:34:30;5.23;;;3.33;;
11582;SDS011;34299;50.820;4.548;2023-02-28T09:36:57;3.17;;;2.80;;
11582;SDS011;34299;50.820;4.548;2023-02-28T09:39:25;2.73;;;2.53;;
11582;SDS011;34299;50.820;4.548;2023-02-28T09:41:55;3.93;;;2.53;;
11582;SDS011;34299;50.820;4.548;2023-02-28T09:44:24;4.63;;;2.53;;
11582;SDS011;34299;50.820;4.548;2023-02-28T09:46:55;5.20;;;1.97;;
11582;SDS011;34299;50.820;4.548;2023-02-28T09:49:27;2.50;;;2.20;;
11582;SDS011;34299;50.820;4.548;2023-02-28T09:51:56;5.03;;;2.50;;
11582;SDS011;34299;50.820;4.548;2023-02-28T09:54:27;2.67;;;2.47;;
11582;SDS011;34299;50.820;4.548;2023-02-28T09:56:58;4.57;;;2.50;;
11582;SDS011;34299;50.820;4.548;2023-02-28T09:59:36;2.07;;;1.73;;
11582;SDS011;34299;50.820;4.548;2023-02-28T10:02:10;2.73;;;2.23;;
11582;SDS011;34299;50.820;4.548;2023-02-28T10:04:42;2.73;;;2.47;;
11582;SDS011;34299;50.820;4.548;2023-02-28T10:07:14;1.90;;;1.80;;
11582;SDS011;34299;50.820;4.548;2023-02-28T10:09:45;3.27;;;1.90;;
11582;SDS011;34299;50.820;4.548;2023-02-28T10:12:15;2.50;;;2.00;;
11582;SDS011;34299;50.820;4.548;2023-02-28T10:14:44;2.63;;;1.90;;
11582;SDS011;34299;50.820;4.548;2023-02-28T10:17:12;2.13;;;1.70;;
11582;SDS011;34299;50.820;4.548;2023-02-28T10:19:42;4.53;;;1.83;;
11582;SDS011;34299;50.820;4.548;2023-02-28T10:22:11;1.70;;;1.60;;
11582;SDS011;34299;50.820;4.548;2023-02-28T10:24:41;2.60;;;2.13;;
11582;SDS011;34299;50.820;4.548;2023-02-28T10:27:12;1.53;;;1.43;;
11582;SDS011;34299;50.820;4.548;2023-02-28T10:29:42;1.90;;;1.67;;
11582;SDS011;34299;50.820;4.548;2023-02-28T10:32:10;1.60;;;1.30;;
11582;SDS011;34299;50.820;4.548;2023-02-28T10:34:38;1.97;;;1.47;;
11582;SDS011;34299;50.820;4.548;2023-02-28T10:37:05;1.70;;;1.60;;
11582;SDS011;34299;50.820;4.548;2023-02-28T10:39:34;7.07;;;1.80;;
11582;SDS011;34299;50.820;4.548;2023-02-28T10:42:01;2.03;;;1.33;;
11582;SDS011;34299;50.820;4.548;2023-02-28T10:44:28;2.80;;;1.67;;
11582;SDS011;34299;50.820;4.548;2023-02-28T10:46:57;3.53;;;1.80;;
11582;SDS011;34299;50.820;4.548;2023-02-28T10:49:25;2.20;;;1.80;;
11582;SDS011;34299;50.820;4.548;2023-02-28T10:51:54;2.23;;;1.53;;
11582;SDS011;34299;50.820;4.548;2023-02-28T10:54:23;2.17;;;1.97;;
11582;SDS011;34299;50.820;4.548;2023-02-28T10:57:05;1.73;;;1.50;;
11582;SDS011;34299;50.820;4.548;2023-02-28T10:59:33;1.47;;;1.37;;
11582;SDS011;34299;50.820;4.548;2023-02-28T11:02:02;1.90;;;1.70;;
11582;SDS011;34299;50.820;4.548;2023-02-28T11:04:33;2.07;;;1.40;;
11582;SDS011;34299;50.820;4.548;2023-02-28T11:07:03;1.93;;;1.50;;
11582;SDS011;34299;50.820;4.548;2023-02-28T11:09:33;3.10;;;1.57;;
11582;SDS011;34299;50.820;4.548;2023-02-28T11:12:01;1.87;;;1.67;;
11582;SDS011;34299;50.820;4.548;2023-02-28T11:14:29;3.07;;;1.77;;
11582;SDS011;34299;50.820;4.548;2023-02-28T11:17:00;1.70;;;1.60;;
11582;SDS011;34299;50.820;4.548;2023-02-28T11:19:31;2.73;;;1.80;;
11582;SDS011;34299;50.820;4.548;2023-02-28T11:22:01;1.67;;;1.57;;
11582;SDS011;34299;50.820;4.548;2023-02-28T11:24:29;1.60;;;1.50;;
11582;SDS011;34299;50.820;4.548;2023-02-28T11:26:58;4.23;;;1.83;;
11582;SDS011;34299;50.820;4.548;2023-02-28T11:29:26;1.83;;;1.70;;
11582;SDS011;34299;50.820;4.548;2023-02-28T11:34:47;2.80;;;2.17;;
11582;SDS011;34299;50.820;4.548;2023-02-28T11:37:26;4.53;;;1.73;;
11582;SDS011;34299;50.820;4.548;2023-02-28T11:39:54;1.77;;;1.60;;
11582;SDS011;34299;50.820;4.548;2023-02-28T11:42:29;1.90;;;1.60;;
11582;SDS011;34299;50.820;4.548;2023-02-28T11:45:02;3.20;;;1.70;;
11582;SDS011;34299;50.820;4.548;2023-02-28T11:47:32;2.17;;;1.70;;
11582;SDS011;34299;50.820;4.548;2023-02-28T11:50:07;2.80;;;1.73;;
11582;SDS011;34299;50.820;4.548;2023-02-28T11:52:39;3.30;;;1.60;;
11582;SDS011;34299;50.820;4.548;2023-02-28T11:55:12;1.60;;;1.50;;
11582;SDS011;34299;50.820;4.548;2023-02-28T11:57:47;2.87;;;1.73;;
11582;SDS011;34299;50.820;4.548;2023-02-28T12:00:19;1.20;;;1.10;;
11582;SDS011;34299;50.820;4.548;2023-02-28T12:02:59;1.57;;;1.47;;
11582;SDS011;34299;50.820;4.548;2023-02-28T12:05:31;1.57;;;1.47;;
11582;SDS011;34299;50.820;4.548;2023-02-28T12:08:06;1.80;;;1.40;;
11582;SDS011;34299;50.820;4.548;2023-02-28T12:10:37;1.67;;;1.57;;
11582;SDS011;34299;50.820;4.548;2023-02-28T12:13:10;4.30;;;2.50;;
11582;SDS011;34299;50.820;4.548;2023-02-28T12:15:51;2.63;;;2.00;;
11582;SDS011;34299;50.820;4.548;2023-02-28T12:18:25;2.50;;;1.93;;
11582;SDS011;34299;50.820;4.548;2023-02-28T12:20:56;3.73;;;1.87;;
11582;SDS011;34299;50.820;4.548;2023-02-28T12:23:39;2.07;;;1.67;;
11582;SDS011;34299;50.820;4.548;2023-02-28T12:26:09;2.43;;;1.57;;
11582;SDS011;34299;50.820;4.548;2023-02-28T12:28:40;2.27;;;1.57;;
11582;SDS011;34299;50.820;4.548;2023-02-28T12:31:09;3.43;;;1.73;;
11582;SDS011;34299;50.820;4.548;2023-02-28T12:33:38;2.93;;;1.67;;
11582;SDS011;34299;50.820;4.548;2023-02-28T12:36:09;1.97;;;1.80;;
11582;SDS011;34299;50.820;4.548;2023-02-28T12:38:38;4.03;;;2.10;;
11582;SDS011;34299;50.820;4.548;2023-02-28T12:41:09;1.70;;;1.60;;
11582;SDS011;34299;50.820;4.548;2023-02-28T12:43:40;2.33;;;1.80;;
11582;SDS011;34299;50.820;4.548;2023-02-28T12:46:09;2.57;;;2.03;;
11582;SDS011;34299;50.820;4.548;2023-02-28T12:48:39;4.93;;;2.00;;
11582;SDS011;34299;50.820;4.548;2023-02-28T12:51:08;1.80;;;1.50;;
11582;SDS011;34299;50.820;4.548;2023-02-28T12:53:40;1.63;;;1.53;;
11582;SDS011;34299;50.820;4.548;2023-02-28T12:56:13;1.77;;;1.67;;
11582;SDS011;34299;50.820;4.548;2023-02-28T12:58:45;1.73;;;1.63;;
11582;SDS011;34299;50.820;4.548;2023-02-28T13:01:28;2.43;;;1.50;;
11582;SDS011;34299;50.820;4.548;2023-02-28T13:04:03;2.17;;;2.00;;
11582;SDS011;34299;50.820;4.548;2023-02-28T13:06:45;1.87;;;1.67;;
11582;SDS011;34299;50.820;4.548;2023-02-28T13:09:19;2.80;;;1.80;;
11582;SDS011;34299;50.820;4.548;2023-02-28T13:11:47;2.00;;;1.80;;
11582;SDS011;34299;50.820;4.548;2023-02-28T13:14:18;2.13;;;1.83;;
11582;SDS011;34299;50.820;4.548;2023-02-28T13:16:56;4.00;;;1.60;;
11582;SDS011;34299;50.820;4.548;2023-02-28T13:19:24;2.00;;;1.80;;
11582;SDS011;34299;50.820;4.548;2023-02-28T13:21:53;1.93;;;1.60;;
11582;SDS011;34299;50.820;4.548;2023-02-28T13:27:23;2.10;;;1.90;;
11582;SDS011;34299;50.820;4.548;2023-02-28T13:29:51;3.03;;;1.70;;
11582;SDS011;34299;50.820;4.548;2023-02-28T13:32:20;4.97;;;1.97;;
11582;SDS011;34299;50.820;4.548;2023-02-28T13:37:46;1.80;;;1.70;;
11582;SDS011;34299;50.820;4.548;2023-02-28T13:40:32;1.67;;;1.57;;
11582;SDS011;34299;50.820;4.548;2023-02-28T13:43:02;2.17;;;1.60;;
11582;SDS011;34299;50.820;4.548;2023-02-28T13:45:30;2.23;;;1.83;;
11582;SDS011;34299;50.820;4.548;2023-02-28T13:48:03;1.70;;;1.60;;
11582;SDS011;34299;50.820;4.548;2023-02-28T13:50:32;1.83;;;1.60;;
11582;SDS011;34299;50.820;4.548;2023-02-28T13:53:07;2.87;;;1.70;;
11582;SDS011;34299;50.820;4.548;2023-02-28T13:55:42;3.13;;;2.13;;
11582;SDS011;34299;50.820;4.548;2023-02-28T13:58:19;2.33;;;2.10;;
11582;SDS011;34299;50.820;4.548;2023-02-28T14:00:57;1.63;;;1.53;;
11582;SDS011;34299;50.820;4.548;2023-02-28T14:03:30;1.80;;;1.70;;
11582;SDS011;34299;50.820;4.548;2023-02-28T14:06:10;1.80;;;1.70;;
11582;SDS011;34299;50.820;4.548;2023-02-28T14:08:45;1.53;;;1.43;;
11582;SDS011;34299;50.820;4.548;2023-02-28T14:11:23;2.20;;;1.83;;
11582;SDS011;34299;50.820;4.548;2023-02-28T14:13:50;2.07;;;1.50;;
11582;SDS011;34299;50.820;4.548;2023-02-28T14:16:20;2.90;;;1.57;;
11582;SDS011;34299;50.820;4.548;2023-02-28T14:18:49;3.53;;;1.77;;
11582;SDS011;34299;50.820;4.548;2023-02-28T14:21:20;2.03;;;1.83;;
11582;SDS011;34299;50.820;4.548;2023-02-28T14:24:01;2.00;;;1.80;;
11582;SDS011;34299;50.820;4.548;2023-02-28T14:29:17;2.67;;;1.80;;
11582;SDS011;34299;50.820;4.548;2023-02-28T14:31:48;2.87;;;1.90;;
11582;SDS011;34299;50.820;4.548;2023-02-28T14:34:20;2.30;;;2.03;;
11582;SDS011;34299;50.820;4.548;2023-02-28T14:36:52;2.13;;;1.77;;
11582;SDS011;34299;50.820;4.548;2023-02-28T14:39:22;1.93;;;1.67;;
11582;SDS011;34299;50.820;4.548;2023-02-28T14:41:51;2.60;;;2.17;;
11582;SDS011;34299;50.820;4.548;2023-02-28T14:44:19;2.07;;;1.87;;
11582;SDS011;34299;50.820;4.548;2023-02-28T14:46:48;4.07;;;2.00;;
11582;SDS011;34299;50.820;4.548;2023-02-28T14:49:17;3.10;;;2.40;;
11582;SDS011;34299;50.820;4.548;2023-02-28T14:51:45;2.43;;;2.23;;
11582;SDS011;34299;50.820;4.548;2023-02-28T14:54:13;2.97;;;2.20;;
11582;SDS011;34299;50.820;4.548;2023-02-28T14:56:42;2.73;;;1.80;;
11582;SDS011;34299;50.820;4.548;2023-02-28T14:59:24;3.47;;;2.23;;
11582;SDS011;34299;50.820;4.548;2023-02-28T15:01:51;2.33;;;2.03;;
11582;SDS011;34299;50.820;4.548;2023-02-28T15:04:21;4.10;;;1.90;;
11582;SDS011;34299;50.820;4.548;2023-02-28T15:09:31;4.20;;;2.10;;
11582;SDS011;34299;50.820;4.548;2023-02-28T15:12:00;2.30;;;2.10;;
11582;SDS011;34299;50.820;4.548;2023-02-28T15:14:28;2.23;;;2.00;;
11582;SDS011;34299;50.820;4.548;2023-02-28T15:16:56;3.43;;;2.10;;
11582;SDS011;34299;50.820;4.548;2023-02-28T15:19:26;3.20;;;2.40;;